Data for 06/20/2007

Time Sea-Level Adjusted Pressure Absolute Pressure Temperature Relative Humidity Dew Point   
(mb) (inHg) (mb) (inHg) (C) (F) (%) (C) (F)
00:05 1019 30.09 848 25.04 17.6 63.6 39 3.7 38.6
00:10 1019 30.09 849 25.07 17.2 63 42 4.2 39.6
00:15 1019 30.09 849 25.07 16.9 62.4 41 3.8 38.8
00:20 1019 30.09 849 25.07 17.1 62.7 47 5.8 42.4
00:25 1019 30.09 849 25.07 16.9 62.4 42 4 39.1
00:30 1019 30.09 849 25.07 16.6 61.9 43 4 39.2
00:35 1019 30.09 849 25.07 16.5 61.7 42 3.6 38.6
00:40 1019 30.09 849 25.07 16.5 61.6 42 3.5 38.3
00:45 1019 30.09 849 25.07 16.5 61.8 42 3.6 38.4
00:50 1019 30.09 849 25.07 16.6 61.9 41 3.3 38
00:55 1019 30.09 849 25.07 16.7 62.1 40 3.2 37.8
01:00 1019 30.09 849 25.07 16.9 62.4 40 3.4 38.1
01:05 1020 30.12 849 25.07 17 62.6 39 3.2 37.7
01:10 1020 30.12 849 25.07 17.2 63 37 2.5 36.5
01:15 1020 30.12 849 25.07 17.6 63.7 38 3.1 37.5
01:20 1020 30.12 849 25.07 17.2 62.9 42 4.2 39.6
01:25 1020 30.12 849 25.07 16.2 61.1 44 4 39.2
01:30 1020 30.12 849 25.07 16 60.8 44 3.9 39
01:35 1020 30.12 849 25.07 15.9 60.6 45 4.1 39.5
01:40 1020 30.12 849 25.07 15.7 60.2 45 3.9 39.1
01:45 1020 30.12 849 25.07 15.4 59.8 47 4.4 39.8
01:50 1020 30.12 849 25.07 15.6 60 45 3.7 38.6
01:55 1020 30.12 849 25.07 15.6 60.1 48 4.7 40.5
02:00 1020 30.12 849 25.07 15.2 59.3 48 4.3 39.7
02:05 1020 30.12 849 25.07 15.1 59.2 48 4.1 39.4
02:10 1020 30.12 849 25.07 15.1 59.1 48 4.2 39.5
02:15 1020 30.12 849 25.07 15.6 60 49 4.9 40.7
02:20 1020 30.12 849 25.07 15 59.1 51 5 41
02:25 1020 30.12 849 25.07 14.4 57.9 53 4.9 40.8
02:30 1020 30.12 849 25.07 14.1 57.3 53 4.7 40.4
02:35 1020 30.12 849 25.07 13.6 56.5 54 4.6 40.3
02:40 1020 30.12 849 25.07 13.3 55.9 56 4.8 40.7
02:45 1020 30.12 849 25.07 13.2 55.8 55 4.5 40.1
02:50 1020 30.12 850 25.1 13.8 56.9 53 4.5 40.1
02:55 1020 30.12 850 25.1 13.8 56.8 55 5 41
03:00 1020 30.12 850 25.1 13.3 56 56 4.9 40.7
03:05 1020 30.12 850 25.1 13.1 55.5 57 4.7 40.5
03:10 1020 30.12 850 25.1 12.8 55.1 59 5.1 41.2
03:15 1021 30.15 850 25.1 12.4 54.3 60 4.9 40.8
03:20 1021 30.15 850 25.1 12.8 55 56 4.4 39.9
03:25 1021 30.15 850 25.1 12.9 55.2 58 4.8 40.7
03:30 1021 30.15 850 25.1 12.7 54.8 58 4.8 40.7
03:35 1021 30.15 850 25.1 12.5 54.4 59 4.8 40.6
03:40 1021 30.15 850 25.1 12.6 54.7 56 4.2 39.6
03:45 1021 30.15 850 25.1 13.4 56.1 55 4.5 40
03:50 1021 30.15 850 25.1 13.2 55.8 56 4.8 40.7
03:55 1021 30.15 850 25.1 12.8 55.1 56 4.4 39.8
04:00 1021 30.15 850 25.1 12.8 55 57 4.5 40.2
04:05 1021 30.15 850 25.1 12.7 54.8 57 4.5 40
04:10 1021 30.15 850 25.1 12.7 54.8 57 4.3 39.8
04:15 1021 30.15 850 25.1 12.8 55 56 4.3 39.8
04:20 1021 30.15 850 25.1 13.1 55.5 53 3.8 38.9
04:25 1021 30.15 850 25.1 13.3 56 55 4.6 40.2
04:30 1021 30.15 850 25.1 13.2 55.7 55 4.3 39.8
04:35 1021 30.15 850 25.1 12.8 55 57 4.6 40.3
04:40 1021 30.15 850 25.1 12.4 54.4 58 4.4 39.8
04:45 1021 30.15 850 25.1 12.6 54.7 57 4.3 39.7
04:50 1021 30.15 850 25.1 12.3 54.1 60 4.7 40.5
04:55 1021 30.15 850 25.1 11.9 53.4 61 4.7 40.4
05:00 1021 30.15 850 25.1 11.7 53.1 62 4.7 40.5
05:05 1021 30.15 850 25.1 11.6 52.8 63 4.8 40.7
05:10 1021 30.15 850 25.1 11.7 53.1 62 4.7 40.4
05:15 1021 30.15 850 25.1 11.8 53.2 62 4.8 40.6
05:20 1021 30.15 850 25.1 11.7 53.1 62 4.7 40.5
05:25 1021 30.15 850 25.1 11.9 53.5 61 4.6 40.4
05:30 1021 30.15 851 25.13 12.3 54.1 58 4.4 40
05:35 1021 30.15 851 25.13 12.5 54.5 59 4.7 40.5
05:40 1021 30.15 851 25.13 12.5 54.6 58 4.7 40.4
05:45 1022 30.18 851 25.13 12.3 54.1 60 4.8 40.6
05:50 1022 30.18 851 25.13 12.1 53.8 60 4.6 40.2
05:55 1022 30.18 851 25.13 12.3 54.1 58 4.4 39.9
06:00 1022 30.18 851 25.13 12.6 54.7 58 4.5 40.2
06:05 1022 30.18 851 25.13 12.9 55.3 56 4.5 40.1
06:10 1022 30.18 851 25.13 13 55.4 56 4.6 40.2
06:15 1022 30.18 851 25.13 13 55.3 57 4.6 40.3
06:20 1022 30.18 851 25.13 13.1 55.5 56 4.6 40.2
06:25 1022 30.18 851 25.13 13.4 56.1 55 4.5 40.1
06:30 1022 30.18 851 25.13 13.7 56.7 55 4.8 40.6
06:35 1022 30.18 851 25.13 13.7 56.7 54 4.6 40.3
06:40 1022 30.18 851 25.13 13.5 56.3 55 4.8 40.7
06:45 1022 30.18 851 25.13 13.3 55.9 57 5 41
06:50 1022 30.18 851 25.13 13.2 55.7 57 4.8 40.7
06:55 1022 30.18 851 25.13 13.2 55.8 58 5.1 41.2
07:00 1022 30.18 851 25.13 13.4 56.1 57 5.2 41.4
07:05 1022 30.18 851 25.13 13.5 56.3 58 5.4 41.8
07:10 1022 30.18 851 25.13 13.9 56.9 56 5.3 41.6
07:15 1022 30.18 851 25.13 14.1 57.3 56 5.4 41.7
07:20 1022 30.18 851 25.13 14.4 57.9 55 5.5 41.8
07:25 1022 30.18 851 25.13 14.5 58.1 55 5.7 42.2
07:30 1022 30.18 851 25.13 14.5 58.1 56 6 42.8
07:35 1022 30.18 851 25.13 14.8 58.6 57 6.4 43.6
07:40 1022 30.18 851 25.13 15 59 56 6.3 43.4
07:45 1022 30.18 851 25.13 15.4 59.6 54 6.1 43
07:50 1022 30.18 851 25.13 15.8 60.5 53 6.3 43.4
07:55 1022 30.18 851 25.13 16.2 61.2 51 6.3 43.4
08:00 1022 30.18 851 25.13 16.6 61.9 51 6.4 43.5
08:05 1022 30.18 851 25.13 17 62.7 50 6.5 43.8
08:10 1022 30.18 851 25.13 17.6 63.6 46 5.9 42.5
08:15 1022 30.18 851 25.13 17.8 64 47 6.5 43.6
08:20 1022 30.18 851 25.13 18.1 64.6 46 6.4 43.5
08:25 1022 30.18 851 25.13 18.7 65.6 42 5.6 42.1
08:30 1022 30.18 851 25.13 19.1 66.4 44 6.6 44
08:35 1022 30.18 851 25.13 19.2 66.6 43 6.6 43.8
08:40 1022 30.18 851 25.13 19.7 67.4 42 6.6 43.9
08:45 1022 30.18 851 25.13 20.2 68.3 42 6.8 44.3
08:50 1022 30.18 851 25.13 20.5 69 44 8 46.3
08:55 1022 30.18 851 25.13 20.7 69.3 43 8 46.3
09:00 1022 30.18 851 25.13 21.3 70.3 42 8.1 46.6
09:05 1022 30.18 851 25.13 20.3 68.5 46 8.6 47.5
09:10 1022 30.18 851 25.13 20.1 68.1 44 7.6 45.8
09:15 1022 30.18 851 25.13 20.3 68.5 44 7.9 46.3
09:20 1022 30.18 851 25.13 20.4 68.8 46 8.7 47.6
09:25 1022 30.18 851 25.13 21 69.8 44 8.4 47.1
09:30 1022 30.18 851 25.13 21.2 70.1 44 8.8 47.8
09:35 1022 30.18 851 25.13 21.2 70.1 44 8.5 47.3
09:40 1022 30.18 851 25.13 21.4 70.5 41 7.7 45.9
09:45 1022 30.18 851 25.13 21.4 70.6 41 7.7 45.8
09:50 1022 30.18 851 25.13 21.3 70.4 39 6.9 44.5
09:55 1022 30.18 851 25.13 21 69.8 40 7 44.6
10:00 1022 30.18 851 25.13 21.6 70.9 39 7.2 44.9
10:05 1022 30.18 851 25.13 22.7 72.9 37 7.6 45.6
10:10 1021 30.15 851 25.13 23.1 73.6 36 7.5 45.5
10:15 1021 30.15 851 25.13 22.6 72.7 35 6.5 43.7
10:20 1021 30.15 851 25.13 23.1 73.6 35 6.9 44.3
10:25 1021 30.15 851 25.13 22.5 72.5 37 7.1 44.8
10:30 1021 30.15 851 25.13 23.4 74.2 33 6.6 43.9
10:35 1021 30.15 851 25.13 24.3 75.8 34 7.7 45.8
10:40 1021 30.15 851 25.13 23.5 74.2 34 7.1 44.8
10:45 1021 30.15 851 25.13 24.1 75.5 34 7.3 45.2
10:50 1021 30.15 850 25.1 24.3 75.8 34 7.6 45.7
10:55 1021 30.15 850 25.1 24.5 76.1 34 7.8 46.1
11:00 1021 30.15 850 25.1 25 77 33 7.7 45.9
11:05 1021 30.15 850 25.1 24.1 75.5 35 8 46.4
11:10 1021 30.15 850 25.1 23.9 75 36 8 46.4
11:15 1021 30.15 850 25.1 24.4 75.9 34 7.8 46.1
11:20 1021 30.15 850 25.1 25.3 77.6 33 8.3 46.9
11:25 1021 30.15 850 25.1 25.3 77.5 35 8.9 47.9
11:30 1021 30.15 850 25.1 24.8 76.7 34 8.3 47
11:35 1021 30.15 850 25.1 25.3 77.5 35 8.8 47.9
11:40 1021 30.15 850 25.1 24.9 76.8 36 8.9 48
11:45 1021 30.15 850 25.1 24.4 75.8 36 8.5 47.4
11:50 1021 30.15 850 25.1 24.2 75.5 35 8.2 46.7
11:55 1021 30.15 850 25.1 25.2 77.3 34 8.2 46.8
12:00 1021 30.15 850 25.1 25.3 77.5 33 8 46.5
12:05 1021 30.15 850 25.1 25.1 77.2 34 8.4 47.1
12:10 1021 30.15 850 25.1 26.2 79.2 31 8.1 46.6
12:15 1021 30.15 850 25.1 27.3 81.2 30 8.7 47.7
12:20 1020 30.12 850 25.1 27.7 81.8 30 8.9 48
12:25 1020 30.12 850 25.1 27.2 81 31 8.8 47.8
12:30 1020 30.12 850 25.1 28.1 82.5 29 8.9 48
12:35 1020 30.12 850 25.1 28.6 83.5 27 8.3 47
12:40 1020 30.12 850 25.1 28.5 83.3 28 8.7 47.7
12:45 1020 30.12 849 25.07 28.4 83 28 8.5 47.3
12:50 1020 30.12 849 25.07 28.3 83 28 8.6 47.5
12:55 1020 30.12 849 25.07 28 82.4 28 8.2 46.7
13:00 1020 30.12 849 25.07 28.6 83.4 26 7.7 45.8
13:05 1020 30.12 849 25.07 29.3 84.8 28 9.1 48.3
13:10 1020 30.12 849 25.07 29 84.2 29 9.5 49.1
13:15 1020 30.12 849 25.07 28.9 83.9 28 8.9 48
13:20 1020 30.12 849 25.07 28.4 83.1 28 8.5 47.3
13:25 1020 30.12 849 25.07 28 82.3 32 10 50
13:30 1020 30.12 849 25.07 27.7 81.8 30 8.8 47.9
13:35 1020 30.12 849 25.07 27.6 81.8 29 8.3 47
13:40 1020 30.12 849 25.07 28.3 83 27 7.6 45.8
13:45 1020 30.12 849 25.07 29.1 84.4 28 9.1 48.4
13:50 1020 30.12 849 25.07 28.4 83.1 28 8.2 46.7
13:55 1020 30.12 849 25.07 28.2 82.8 29 8.6 47.4
14:00 1020 30.12 849 25.07 28.2 82.7 29 8.8 47.8
14:05 1020 30.12 849 25.07 27.8 82.1 29 8.6 47.6
14:10 1020 30.12 849 25.07 27.4 81.4 29 8 46.4
14:15 1020 30.12 849 25.07 28.5 83.4 28 8.6 47.5
14:20 1019 30.09 849 25.07 28.8 83.8 29 9.4 48.9
14:25 1019 30.09 849 25.07 29 84.3 28 8.7 47.7
14:30 1019 30.09 848 25.04 28.3 82.9 28 8.2 46.8
14:35 1019 30.09 848 25.04 27.9 82.2 28 8.1 46.6
14:40 1019 30.09 848 25.04 28 82.3 28 8.3 46.9
14:45 1019 30.09 848 25.04 28.7 83.6 27 8.2 46.7
14:50 1019 30.09 848 25.04 29.4 85 24 7 44.6
14:55 1019 30.09 848 25.04 29.7 85.5 22 6.1 43
15:00 1019 30.09 848 25.04 30.1 86.1 20 5.2 41.3
15:05 1019 30.09 848 25.04 30.1 86.1 21 6 42.7
15:10 1019 30.09 848 25.04 29.9 85.9 21 5.4 41.8
15:15 1019 30.09 848 25.04 29.6 85.3 20 4.7 40.5
15:20 1019 30.09 848 25.04 29.9 85.8 18 3.2 37.8
15:25 1018 30.06 848 25.04 30.4 86.8 16 1.8 35.3
15:30 1018 30.06 847 25.01 30.3 86.5 15 0.9 33.7
15:35 1018 30.06 847 25.01 30.6 87 15 1.7 35.1
15:40 1018 30.06 847 25.01 30.7 87.2 15 1.3 34.3
15:45 1018 30.06 847 25.01 30.4 86.7 15 0.8 33.4
15:50 1018 30.06 847 25.01 29.9 85.8 14 -0.3 31.5
15:55 1018 30.06 847 25.01 29.7 85.5 14 -0.2 31.7
16:00 1018 30.06 847 25.01 29.8 85.7 14 0.1 32.1
16:05 1018 30.06 847 25.01 29.7 85.4 15 0.8 33.5
16:10 1018 30.06 847 25.01 29.6 85.3 16 1.2 34.2
16:15 1018 30.06 847 25.01 29.5 85 19 4 39.2
16:20 1018 30.06 847 25.01 28.4 83 22 5 41
16:25 1018 30.06 847 25.01 27.8 82 23 5.4 41.6
16:30 1018 30.06 847 25.01 27.5 81.5 25 5.9 42.5
16:35 1017 30.03 847 25.01 27.3 81.2 21 3.3 38
16:40 1017 30.03 847 25.01 27.3 81.1 23 4.5 40.1
16:45 1017 30.03 847 25.01 27.1 80.8 24 5.3 41.5
16:50 1017 30.03 846 24.98 26.8 80.3 25 5.2 41.4
16:55 1017 30.03 846 24.98 26.6 79.9 25 5.5 41.9
17:00 1017 30.03 846 24.98 26.4 79.5 26 5.9 42.6
17:05 1017 30.03 846 24.98 26.1 79 27 5.8 42.4
17:10 1017 30.03 846 24.98 25.9 78.6 27 5.5 42
17:15 1017 30.03 846 24.98 25.8 78.4 27 5.7 42.3
17:20 1017 30.03 846 24.98 25.5 78 26 4.7 40.4
17:25 1018 30.06 847 25.01 25.5 77.9 24 3.8 38.9
17:30 1019 30.09 848 25.04 25.7 78.2 25 4.3 39.8
17:35 1020 30.12 849 25.07 25.1 77.2 27 5.1 41.2
17:40 1019 30.09 848 25.04 24 75.2 29 4.9 40.9
17:45 1018 30.06 847 25.01 24 75.1 37 8.5 47.3
17:50 1018 30.06 847 25.01 22.1 71.8 40 8.1 46.5
17:55 1019 30.09 848 25.04 21.7 71.1 39 7.5 45.6
18:00 1019 30.09 848 25.04 21.6 70.8 43 8.6 47.6
18:05 1019 30.09 848 25.04 21.6 71 37 6.5 43.7
18:10 1020 30.12 849 25.07 22.1 71.8 36 6.7 44
18:15 1021 30.15 850 25.1 21.9 71.5 36 6.3 43.3
18:20 1021 30.15 850 25.1 21.7 71.1 38 7.1 44.8
18:25 1021 30.15 850 25.1 21.4 70.5 40 7.5 45.6
18:30 1021 30.15 850 25.1 21.2 70.1 42 8.1 46.5
18:35 1021 30.15 850 25.1 21 69.8 44 8.5 47.3
18:40 1021 30.15 850 25.1 20.9 69.7 45 8.6 47.5
18:45 1021 30.15 851 25.13 21 69.8 44 8.4 47
18:50 1022 30.18 851 25.13 20.8 69.4 49 9.8 49.6
18:55 1021 30.15 850 25.1 20.2 68.4 49 9.3 48.7
19:00 1020 30.12 849 25.07 20.1 68.1 47 8.5 47.2
19:05 1020 30.12 849 25.07 20.3 68.5 44 7.9 46.3
19:10 1021 30.15 850 25.1 20.5 68.9 46 8.7 47.6
19:15 1021 30.15 850 25.1 20.8 69.4 44 8.3 47
19:20 1021 30.15 850 25.1 21 69.7 42 7.7 45.9
19:25 1021 30.15 850 25.1 21 69.8 42 7.9 46.2
19:30 1021 30.15 850 25.1 20.8 69.5 44 8.3 46.9
19:35 1021 30.15 850 25.1 20.9 69.5 45 8.5 47.3
19:40 1021 30.15 850 25.1 20.8 69.5 47 9.2 48.6
19:45 1021 30.15 850 25.1 20.1 68.2 54 10.8 51.4
19:50 1021 30.15 850 25.1 19.5 67.1 51 9.3 48.8
19:55 1021 30.15 850 25.1 19.8 67.6 49 9 48.2
20:00 1021 30.15 851 25.13 19.5 67 50 9 48.3
20:05 1020 30.12 849 25.07 19.5 67 51 9.1 48.4
20:10 1020 30.12 849 25.07 19.3 66.8 54 9.8 49.7
20:15 1021 30.15 851 25.13 19.1 66.3 58 10.7 51.3
20:20 1022 30.18 851 25.13 18.4 65.2 57 9.8 49.6
20:25 1022 30.18 851 25.13 18.2 64.8 58 10 50.1
20:30 1022 30.18 851 25.13 18.7 65.7 50 8.2 46.7
20:35 1021 30.15 850 25.1 19.2 66.6 52 9.4 48.9
20:40 1021 30.15 851 25.13 19.3 66.7 59 11 51.9
20:45 1022 30.18 851 25.13 18.6 65.5 61 11 51.8
20:50 1022 30.18 851 25.13 17.6 63.8 66 11.3 52.4
20:55 1021 30.15 851 25.13 17.3 63.2 69 11.6 52.9
21:00 1022 30.18 851 25.13 17.3 63.1 71 12.1 53.8
21:05 1022 30.18 851 25.13 16.9 62.3 74 12.3 54.2
21:10 1022 30.18 851 25.13 16.5 61.7 73 11.7 53
21:15 1022 30.18 851 25.13 16.5 61.7 72 11.6 52.8
21:20 1022 30.18 851 25.13 16.7 62 74 12.1 53.7
21:25 1022 30.18 851 25.13 16.8 62.2 74 12.2 53.9
21:30 1022 30.18 851 25.13 16.8 62.2 75 12.3 54.2
21:35 1022 30.18 851 25.13 16.7 62.1 74 12.1 53.7
21:40 1022 30.18 851 25.13 16.5 61.6 73 11.7 53.1
21:45 1022 30.18 851 25.13 16.5 61.6 75 12 53.6
21:50 1022 30.18 851 25.13 16.5 61.7 71 11.3 52.4
21:55 1022 30.18 851 25.13 16.6 61.8 73 11.8 53.2
22:00 1022 30.18 851 25.13 16.4 61.4 74 11.7 53
22:05 1022 30.18 852 25.16 16.3 61.3 75 11.9 53.4
22:10 1022 30.18 852 25.16 16.4 61.5 72 11.3 52.4
22:15 1023 30.21 852 25.16 16.6 61.8 70 11.2 52.1
22:20 1023 30.21 852 25.16 16.3 61.3 72 11.3 52.4
22:25 1023 30.21 852 25.16 16.1 61.1 73 11.3 52.3
22:30 1023 30.21 852 25.16 16.2 61.2 71 11 51.8
22:35 1023 30.21 852 25.16 16.3 61.3 72 11.2 52.2
22:40 1023 30.21 852 25.16 16.2 61.1 75 11.7 53.1
22:45 1023 30.21 852 25.16 15.9 60.7 74 11.3 52.4
22:50 1023 30.21 852 25.16 16.2 61.1 75 11.7 53
22:55 1023 30.21 852 25.16 16 60.8 78 12.2 53.9
23:00 1023 30.21 852 25.16 15.6 60 78 11.8 53.3
23:05 1023 30.21 852 25.16 15.3 59.5 80 11.8 53.3
23:10 1023 30.21 852 25.16 15.1 59.1 80 11.7 53.1
23:15 1023 30.21 852 25.16 15 59 78 11.3 52.3
23:20 1023 30.21 852 25.16 15.3 59.5 78 11.5 52.6
23:25 1023 30.21 852 25.16 15.5 59.9 78 11.7 53
23:30 1023 30.21 852 25.16 15.1 59.2 81 12 53.5
23:35 1023 30.21 852 25.16 14.4 58 83 11.6 52.8
23:40 1023 30.21 852 25.16 14.4 57.9 81 11.3 52.3
23:45 1023 30.21 852 25.16 14.5 58.1 81 11.3 52.3
23:50 1023 30.21 852 25.16 14.4 57.9 82 11.4 52.5
23:55 1023 30.21 852 25.16 14.3 57.8 81 11.1 51.9
24:00 1022 30.18 852 25.16 14.3 57.7 81 11.1 52